createdAt,value
2022-08-22T00:00:21.010Z,20.57
2022-08-22T00:02:45.362Z,20.96
2022-08-22T00:02:54.492Z,20.98
2022-08-22T00:02:58.022Z,20.83
2022-08-22T00:03:02.492Z,21.17
2022-08-22T00:03:15.977Z,20.69
2022-08-22T00:05:17.446Z,20.56
2022-08-22T00:07:37.842Z,20.52
2022-08-22T00:10:01.732Z,20.61
2022-08-22T00:12:24.177Z,20.56
2022-08-22T00:14:50.001Z,20.62
2022-08-22T00:17:22.289Z,20.57
2022-08-22T00:19:56.072Z,20.56
2022-08-22T00:22:08.729Z,20.67
2022-08-22T00:24:19.562Z,20.52
2022-08-22T00:26:31.796Z,20.52
2022-08-22T00:29:00.416Z,20.50
2022-08-22T00:31:35.673Z,20.56
2022-08-22T00:34:02.086Z,20.50
2022-08-22T00:36:13.918Z,20.52
2022-08-22T00:38:27.586Z,20.41
2022-08-22T00:40:44.389Z,20.38
2022-08-22T00:43:04.286Z,20.49
2022-08-22T00:45:26.054Z,20.52
2022-08-22T00:47:45.252Z,20.58
2022-08-22T00:50:07.047Z,20.51
2022-08-22T00:52:38.505Z,20.55
2022-08-22T00:55:13.731Z,20.49
2022-08-22T00:57:40.283Z,20.52
2022-08-22T01:00:03.452Z,20.55
2022-08-22T01:02:23.818Z,20.47
2022-08-22T01:04:50.163Z,20.45
2022-08-22T01:07:18.047Z,20.46
2022-08-22T01:09:58.933Z,20.45
2022-08-22T01:12:15.471Z,20.46
2022-08-22T01:14:35.666Z,20.44
2022-08-22T01:16:55.364Z,20.38
2022-08-22T01:19:34.734Z,20.31
2022-08-22T01:22:00.566Z,20.27
2022-08-22T01:24:08.199Z,20.34
2022-08-22T01:26:42.695Z,20.25
2022-08-22T01:29:01.438Z,20.27
2022-08-22T01:31:38.339Z,20.39
2022-08-22T01:34:04.572Z,20.28
2022-08-22T01:36:27.748Z,20.33
2022-08-22T01:38:54.773Z,20.28
2022-08-22T01:41:31.488Z,20.28
2022-08-22T01:44:14.328Z,20.12
2022-08-22T01:46:37.861Z,20.24
2022-08-22T01:48:42.404Z,20.34
2022-08-22T01:50:53.435Z,20.39
2022-08-22T01:53:01.087Z,20.35
2022-08-22T01:55:13.866Z,20.27
2022-08-22T01:57:17.228Z,20.19
2022-08-22T01:59:34.289Z,19.96
2022-08-22T02:01:46.681Z,19.99
2022-08-22T02:04:14.679Z,20.06
2022-08-22T02:06:23.133Z,19.96
2022-08-22T02:08:54.282Z,19.91
2022-08-22T02:11:09.902Z,20.00
2022-08-22T02:13:42.264Z,19.90
2022-08-22T02:15:53.852Z,19.94
2022-08-22T02:18:07.863Z,20.01
2022-08-22T02:20:31.805Z,20.16
2022-08-22T02:22:37.266Z,20.08
2022-08-22T02:25:03.355Z,20.08
2022-08-22T02:27:27.165Z,20.12
2022-08-22T02:29:48.771Z,20.09
2022-08-22T02:32:26.121Z,20.05
2022-08-22T02:34:43.766Z,20.02
2022-08-22T02:36:58.095Z,20.06
2022-08-22T02:39:11.924Z,20.06
2022-08-22T02:41:19.821Z,19.98
2022-08-22T02:43:36.279Z,19.95
2022-08-22T02:45:47.065Z,19.90
2022-08-22T02:48:15.190Z,20.07
2022-08-22T02:50:23.902Z,19.96
2022-08-22T02:52:33.782Z,19.96
2022-08-22T02:54:53.759Z,19.97
2022-08-22T02:57:06.739Z,19.85
2022-08-22T02:59:30.032Z,19.86
2022-08-22T03:01:31.744Z,19.90
2022-08-22T03:03:39.179Z,19.84
2022-08-22T03:05:40.930Z,19.86
2022-08-22T03:07:50.420Z,19.85
2022-08-22T03:10:13.385Z,19.82
2022-08-22T03:12:43.493Z,19.57
2022-08-22T03:14:50.995Z,19.69
2022-08-22T03:16:57.275Z,19.85
2022-08-22T03:19:18.924Z,19.77
2022-08-22T03:21:50.829Z,19.73
2022-08-22T03:24:00.320Z,19.42
2022-08-22T03:26:29.127Z,19.54
2022-08-22T03:28:37.279Z,19.44
2022-08-22T03:31:13.049Z,19.50
2022-08-22T03:33:19.497Z,19.59
2022-08-22T03:35:50.608Z,19.69
2022-08-22T03:38:11.730Z,19.59
2022-08-22T03:40:31.479Z,19.68
2022-08-22T03:43:00.938Z,19.67
2022-08-22T03:45:08.499Z,19.61
2022-08-22T03:47:38.250Z,19.65
2022-08-22T03:49:59.388Z,19.67
2022-08-22T03:52:39.289Z,19.61
2022-08-22T03:55:21.021Z,19.61
2022-08-22T03:57:51.871Z,19.45
2022-08-22T04:00:37.956Z,19.50
2022-08-22T04:02:55.775Z,19.60
2022-08-22T04:05:16.317Z,19.64
2022-08-22T04:07:31.431Z,19.67
2022-08-22T04:09:52.611Z,19.73
2022-08-22T04:12:09.526Z,19.59
2022-08-22T04:14:46.949Z,19.64
2022-08-22T04:17:15.569Z,19.59
2022-08-22T04:19:29.837Z,19.77
2022-08-22T04:21:45.866Z,19.59
2022-08-22T04:24:14.120Z,19.68
2022-08-22T04:26:26.701Z,19.64
2022-08-22T04:28:50.129Z,19.55
2022-08-22T04:31:09.117Z,19.58
2022-08-22T04:33:19.130Z,19.56
2022-08-22T04:35:32.996Z,19.68
2022-08-22T04:37:49.781Z,19.70
2022-08-22T04:39:53.631Z,19.65
2022-08-22T04:42:31.797Z,19.67
2022-08-22T04:45:00.334Z,19.69
2022-08-22T04:47:23.017Z,19.73
2022-08-22T04:49:43.244Z,19.71
2022-08-22T04:51:57.785Z,19.85
2022-08-22T04:54:18.131Z,19.67
2022-08-22T04:56:48.527Z,19.70
2022-08-22T04:59:03.710Z,19.65
2022-08-22T05:01:23.614Z,19.81
2022-08-22T05:03:29.156Z,19.80
2022-08-22T05:05:38.191Z,20.01
2022-08-22T05:07:52.698Z,19.66
2022-08-22T05:10:09.263Z,19.95
2022-08-22T05:12:20.278Z,20.08
2022-08-22T05:14:32.449Z,20.07
2022-08-22T05:16:40.052Z,20.04
2022-08-22T05:18:50.622Z,19.84
2022-08-22T05:20:53.976Z,19.80
2022-08-22T05:23:01.786Z,19.75
2022-08-22T05:25:12.985Z,19.83
2022-08-22T05:27:20.500Z,19.87
2022-08-22T05:29:27.536Z,19.59
2022-08-22T05:31:35.430Z,19.50
2022-08-22T05:33:41.070Z,19.66
2022-08-22T05:35:50.213Z,19.69
2022-08-22T05:37:56.353Z,19.87
2022-08-22T05:40:00.810Z,19.98
2022-08-22T05:42:04.004Z,19.99
2022-08-22T05:44:15.152Z,20.01
2022-08-22T05:46:34.853Z,19.87
2022-08-22T05:48:51.306Z,19.97
2022-08-22T05:50:59.536Z,20.14
2022-08-22T05:53:10.290Z,20.02
2022-08-22T05:55:38.721Z,20.01
2022-08-22T05:57:46.588Z,19.99
2022-08-22T05:59:53.453Z,20.06
2022-08-22T06:02:13.938Z,19.98
2022-08-22T06:04:36.338Z,20.06
2022-08-22T06:06:51.320Z,20.24
2022-08-22T06:09:01.473Z,20.25
2022-08-22T06:11:15.671Z,20.42
2022-08-22T06:13:34.403Z,20.70
2022-08-22T06:15:58.359Z,20.83
2022-08-22T06:18:05.611Z,20.72
2022-08-22T06:20:09.805Z,20.66
2022-08-22T06:22:18.734Z,20.71
2022-08-22T06:24:25.401Z,20.61
2022-08-22T06:26:35.990Z,20.55
2022-08-22T06:28:55.051Z,20.72
2022-08-22T06:30:59.265Z,20.53
2022-08-22T06:33:05.867Z,20.51
2022-08-22T06:35:15.576Z,20.86
2022-08-22T06:37:25.432Z,21.08
2022-08-22T06:39:35.621Z,20.94
2022-08-22T06:41:52.674Z,20.95
2022-08-22T06:43:57.487Z,21.03
2022-08-22T06:46:00.774Z,20.88
2022-08-22T06:48:05.724Z,20.86
2022-08-22T06:50:21.194Z,20.93
2022-08-22T06:52:26.957Z,21.01
2022-08-22T06:54:39.637Z,21.01
2022-08-22T06:56:44.494Z,21.31
2022-08-22T06:58:52.163Z,21.36
2022-08-22T07:01:04.013Z,21.46
2022-08-22T07:03:25.909Z,21.49
2022-08-22T07:05:35.394Z,21.49
2022-08-22T07:07:37.264Z,21.46
2022-08-22T07:09:41.541Z,21.72
2022-08-22T07:11:43.639Z,21.78
2022-08-22T07:13:56.438Z,21.86
2022-08-22T07:15:59.661Z,22.04
2022-08-22T07:18:06.792Z,22.20
2022-08-22T07:20:31.077Z,22.36
2022-08-22T07:22:33.992Z,22.36
2022-08-22T07:24:36.343Z,22.39
2022-08-22T07:27:30.808Z,22.29
2022-08-22T07:29:58.640Z,22.26
2022-08-22T07:32:03.038Z,22.43
2022-08-22T07:34:34.277Z,22.45
2022-08-22T07:37:06.153Z,22.28
2022-08-22T07:39:44.337Z,22.35
2022-08-22T07:42:08.677Z,22.50
2022-08-22T07:44:21.681Z,22.40
2022-08-22T07:46:34.168Z,22.15
2022-08-22T07:49:07.703Z,22.07
2022-08-22T07:51:16.131Z,22.05
2022-08-22T07:53:30.237Z,21.96
2022-08-22T07:55:32.621Z,21.72
2022-08-22T07:57:41.555Z,21.83
2022-08-22T07:59:48.366Z,21.97
2022-08-22T08:01:57.099Z,22.08
2022-08-22T08:04:02.613Z,21.98
2022-08-22T08:06:05.157Z,21.86
2022-08-22T08:08:15.963Z,22.16
2022-08-22T08:10:25.761Z,22.21
2022-08-22T08:12:40.558Z,22.12
2022-08-22T08:14:46.284Z,22.14
2022-08-22T08:17:03.103Z,21.92
2022-08-22T08:19:06.283Z,22.07
2022-08-22T08:21:15.031Z,22.29
2022-08-22T08:23:17.222Z,22.29
2022-08-22T08:25:31.135Z,22.21
2022-08-22T08:27:38.295Z,22.02
2022-08-22T08:29:48.981Z,22.32
2022-08-22T08:31:50.981Z,22.09
2022-08-22T08:34:02.003Z,22.45
2022-08-22T08:36:41.143Z,22.45
2022-08-22T08:38:55.630Z,22.62
2022-08-22T08:41:22.496Z,23.14
2022-08-22T08:43:49.110Z,23.07
2022-08-22T08:46:22.470Z,23.41
2022-08-22T08:48:42.958Z,23.05
2022-08-22T08:51:08.224Z,22.87
2022-08-22T08:53:48.737Z,22.80
2022-08-22T08:56:17.808Z,22.79
2022-08-22T08:58:36.178Z,22.59
2022-08-22T09:00:42.983Z,23.28
2022-08-22T09:03:12.322Z,22.88
2022-08-22T09:05:29.655Z,22.97
2022-08-22T09:07:40.194Z,22.87
2022-08-22T09:09:52.311Z,22.99
2022-08-22T09:12:21.412Z,23.06
2022-08-22T09:14:49.989Z,23.46
2022-08-22T09:17:00.628Z,23.11
2022-08-22T09:19:02.352Z,22.92
2022-08-22T09:21:10.150Z,22.89
2022-08-22T09:23:48.155Z,23.52
2022-08-22T09:25:59.461Z,23.35
2022-08-22T09:28:28.345Z,23.71
2022-08-22T09:31:32.626Z,23.67
2022-08-22T09:33:54.144Z,24.05
2022-08-22T09:36:17.416Z,23.84
2022-08-22T09:38:33.332Z,24.02
2022-08-22T09:40:47.889Z,24.05
2022-08-22T09:43:00.883Z,24.01
2022-08-22T09:45:11.494Z,23.89
2022-08-22T09:47:47.146Z,23.74
2022-08-22T09:50:02.785Z,23.66
2022-08-22T09:52:33.085Z,23.34
2022-08-22T09:54:36.758Z,23.88
2022-08-22T09:56:55.853Z,23.78
2022-08-22T09:59:05.115Z,24.03
2022-08-22T10:01:23.929Z,24.16
2022-08-22T10:03:28.707Z,23.85
2022-08-22T10:05:44.342Z,24.17
2022-08-22T10:08:11.980Z,23.99
2022-08-22T10:10:21.377Z,24.03
2022-08-22T10:12:48.366Z,23.78
2022-08-22T10:15:10.253Z,24.04
2022-08-22T10:17:25.699Z,24.22
2022-08-22T10:19:50.412Z,24.56
2022-08-22T10:22:30.183Z,24.48
2022-08-22T10:24:51.165Z,24.25
2022-08-22T10:26:56.486Z,24.12
2022-08-22T10:29:16.961Z,24.32
2022-08-22T10:31:25.478Z,24.67
2022-08-22T10:33:36.462Z,24.63
2022-08-22T10:35:44.479Z,24.50
2022-08-22T10:37:57.212Z,24.56
2022-08-22T10:40:05.345Z,24.76
2022-08-22T10:42:25.514Z,24.57
2022-08-22T10:44:47.718Z,24.65
2022-08-22T10:46:54.914Z,24.83
2022-08-22T10:49:05.774Z,24.89
2022-08-22T10:51:40.998Z,24.84
2022-08-22T10:54:07.901Z,25.13
2022-08-22T10:56:27.669Z,25.18
2022-08-22T10:58:36.728Z,25.45
2022-08-22T11:00:53.804Z,25.74
2022-08-22T11:03:26.427Z,25.80
2022-08-22T11:05:42.027Z,25.82
2022-08-22T11:07:56.902Z,25.64
2022-08-22T11:10:09.340Z,25.81
2022-08-22T11:12:34.885Z,25.68
2022-08-22T11:15:04.761Z,25.47
2022-08-22T11:17:40.661Z,25.68
2022-08-22T11:20:16.998Z,25.86
2022-08-22T11:22:24.721Z,26.01
2022-08-22T11:24:34.848Z,25.47
2022-08-22T11:26:47.013Z,24.97
2022-08-22T11:29:02.792Z,25.01
2022-08-22T11:31:51.409Z,25.28
2022-08-22T11:34:10.306Z,25.50
2022-08-22T11:36:30.874Z,25.36
2022-08-22T11:39:01.435Z,25.30
2022-08-22T11:41:13.164Z,25.08
2022-08-22T11:43:36.155Z,24.74
2022-08-22T11:45:46.940Z,25.04
2022-08-22T11:48:27.563Z,25.07
2022-08-22T11:50:32.302Z,25.08
2022-08-22T11:53:04.591Z,25.01
2022-08-22T11:55:15.596Z,25.11
2022-08-22T11:57:36.328Z,25.26
2022-08-22T12:00:15.302Z,25.45
2022-08-22T12:02:40.661Z,25.15
2022-08-22T12:04:49.350Z,25.35
2022-08-22T12:07:15.806Z,24.86
2022-08-22T12:09:45.110Z,24.47
2022-08-22T12:12:13.950Z,25.06
2022-08-22T12:14:34.185Z,25.08
2022-08-22T12:17:28.487Z,25.22
2022-08-22T12:20:14.977Z,25.59
2022-08-22T12:22:33.521Z,24.72
2022-08-22T12:24:53.476Z,24.77
2022-08-22T12:27:01.560Z,24.79
2022-08-22T12:29:27.448Z,25.21
2022-08-22T12:31:38.535Z,24.81
2022-08-22T12:33:43.263Z,24.49
2022-08-22T12:35:45.266Z,24.65
2022-08-22T12:38:28.580Z,24.92
2022-08-22T12:40:50.353Z,24.80
2022-08-22T12:43:27.538Z,24.69
2022-08-22T12:46:31.616Z,24.71
2022-08-22T12:48:59.640Z,25.07
2022-08-22T12:51:23.204Z,25.24
2022-08-22T12:53:58.567Z,25.23
2022-08-22T12:56:18.586Z,25.51
2022-08-22T12:58:33.870Z,25.54
2022-08-22T13:00:39.935Z,25.57
2022-08-22T13:02:45.180Z,25.45
2022-08-22T13:04:58.188Z,25.26
2022-08-22T13:07:34.579Z,24.86
2022-08-22T13:09:46.188Z,24.91
2022-08-22T13:11:53.678Z,24.82
2022-08-22T13:14:02.219Z,24.92
2022-08-22T13:16:13.886Z,25.13
2022-08-22T13:18:29.987Z,25.21
2022-08-22T13:20:39.976Z,25.18
2022-08-22T13:22:46.037Z,25.14
2022-08-22T13:25:04.720Z,25.04
2022-08-22T13:27:15.889Z,25.17
2022-08-22T13:29:27.470Z,25.41
2022-08-22T13:31:43.625Z,25.33
2022-08-22T13:33:46.384Z,25.62
2022-08-22T13:36:14.336Z,25.45
2022-08-22T13:38:25.717Z,25.47
2022-08-22T13:40:31.409Z,25.53
2022-08-22T13:42:39.995Z,25.49
2022-08-22T13:44:50.373Z,25.43
2022-08-22T13:47:13.614Z,25.36
2022-08-22T13:49:33.307Z,25.08
2022-08-22T13:52:01.617Z,25.26
2022-08-22T13:54:40.176Z,25.77
2022-08-22T13:56:50.825Z,25.70
2022-08-22T13:59:06.170Z,25.53
2022-08-22T14:01:28.426Z,25.43
2022-08-22T14:04:32.254Z,25.25
2022-08-22T14:06:47.316Z,25.13
2022-08-22T14:08:50.675Z,24.99
2022-08-22T14:11:31.441Z,25.02
2022-08-22T14:13:45.127Z,24.90
2022-08-22T14:15:48.707Z,24.83
2022-08-22T14:18:00.551Z,24.94
2022-08-22T14:20:33.515Z,24.74
2022-08-22T14:22:39.136Z,24.74
2022-08-22T14:24:58.023Z,24.55
2022-08-22T14:27:05.120Z,24.34
2022-08-22T14:29:14.954Z,24.36
2022-08-22T14:31:24.054Z,24.34
2022-08-22T14:33:39.894Z,24.34
2022-08-22T14:35:52.678Z,24.12
2022-08-22T14:38:18.034Z,24.09
2022-08-22T14:40:30.341Z,24.40
2022-08-22T14:42:49.584Z,24.37
2022-08-22T14:45:06.538Z,24.11
2022-08-22T14:47:55.610Z,24.09
2022-08-22T14:49:49.678Z,24.02
2022-08-22T14:52:05.537Z,24.05
2022-08-22T14:54:28.904Z,24.05
2022-08-22T14:56:32.222Z,24.04
2022-08-22T14:58:49.707Z,23.78
2022-08-22T15:00:54.096Z,24.00
2022-08-22T15:03:33.118Z,24.07
2022-08-22T15:05:46.203Z,24.07
2022-08-22T15:07:56.173Z,23.93
2022-08-22T15:10:33.147Z,23.63
2022-08-22T15:12:40.718Z,23.79
2022-08-22T15:14:48.949Z,23.85
2022-08-22T15:17:01.145Z,23.86
2022-08-22T15:19:21.071Z,23.83
2022-08-22T15:21:32.890Z,23.85
2022-08-22T15:23:45.123Z,23.92
2022-08-22T15:26:24.363Z,23.73
2022-08-22T15:28:27.693Z,23.56
2022-08-22T15:31:03.802Z,23.77
2022-08-22T15:33:22.514Z,23.61
2022-08-22T15:35:31.450Z,23.83
2022-08-22T15:37:53.465Z,23.79
2022-08-22T15:40:27.544Z,23.90
2022-08-22T15:42:56.624Z,23.95
2022-08-22T15:45:01.493Z,24.01
2022-08-22T15:47:12.097Z,24.01
2022-08-22T15:49:29.712Z,24.02
2022-08-22T15:51:38.598Z,23.96
2022-08-22T15:54:26.900Z,23.78
2022-08-22T15:56:34.646Z,23.76
2022-08-22T15:58:37.523Z,23.89
2022-08-22T16:01:02.650Z,23.87
2022-08-22T16:03:10.781Z,23.69
2022-08-22T16:05:12.963Z,24.04
2022-08-22T16:07:26.735Z,23.98
2022-08-22T16:09:44.349Z,23.73
2022-08-22T16:11:55.231Z,23.77
2022-08-22T16:14:35.703Z,23.66
2022-08-22T16:17:00.985Z,23.81
2022-08-22T16:19:02.661Z,23.83
2022-08-22T16:21:10.765Z,23.66
2022-08-22T16:23:12.578Z,23.75
2022-08-22T16:25:16.273Z,23.56
2022-08-22T16:27:26.105Z,23.70
2022-08-22T16:29:31.780Z,23.78
2022-08-22T16:31:59.642Z,23.58
2022-08-22T16:34:26.721Z,23.48
2022-08-22T16:36:48.883Z,23.46
2022-08-22T16:38:53.629Z,23.54
2022-08-22T16:40:55.624Z,23.65
2022-08-22T16:43:15.343Z,23.57
2022-08-22T16:45:17.047Z,23.47
2022-08-22T16:47:21.766Z,23.40
2022-08-22T16:49:30.620Z,23.55
2022-08-22T16:51:32.400Z,23.64
2022-08-22T16:53:45.760Z,23.54
2022-08-22T16:56:08.508Z,23.53
2022-08-22T16:58:57.921Z,23.35
2022-08-22T17:01:51.061Z,23.33
2022-08-22T17:04:41.599Z,23.36
2022-08-22T17:07:07.814Z,23.31
2022-08-22T17:09:40.549Z,23.43
2022-08-22T17:11:58.480Z,23.39
2022-08-22T17:14:00.220Z,23.40
2022-08-22T17:16:23.935Z,23.37
2022-08-22T17:19:10.654Z,23.40
2022-08-22T17:21:38.799Z,23.47
2022-08-22T17:24:02.052Z,23.44
2022-08-22T17:26:18.330Z,23.40
2022-08-22T17:28:35.319Z,23.34
2022-08-22T17:30:50.889Z,23.30
2022-08-22T17:33:11.764Z,23.41
2022-08-22T17:35:36.066Z,23.25
2022-08-22T17:37:50.673Z,23.21
2022-08-22T17:40:24.272Z,22.87
2022-08-22T17:42:51.965Z,22.92
2022-08-22T17:45:15.431Z,23.02
2022-08-22T17:47:22.215Z,23.02
2022-08-22T17:49:33.370Z,23.00
2022-08-22T17:51:38.094Z,23.00
2022-08-22T17:53:50.263Z,23.06
2022-08-22T17:55:54.608Z,23.05
2022-08-22T17:58:37.957Z,23.05
2022-08-22T18:00:54.539Z,23.04
2022-08-22T18:03:08.376Z,22.98
2022-08-22T18:05:21.984Z,22.87
2022-08-22T18:07:26.521Z,22.90
2022-08-22T18:09:39.979Z,22.98
2022-08-22T18:11:45.851Z,22.98
2022-08-22T18:14:05.105Z,22.86
2022-08-22T18:16:19.532Z,22.99
2022-08-22T18:18:30.377Z,22.99
2022-08-22T18:20:44.925Z,23.09
2022-08-22T18:22:52.917Z,23.17
2022-08-22T18:25:10.954Z,23.22
2022-08-22T18:27:34.055Z,23.30
2022-08-22T18:29:49.105Z,23.13
2022-08-22T18:32:00.136Z,22.98
2022-08-22T18:34:18.940Z,22.93
2022-08-22T18:36:33.041Z,22.95
2022-08-22T18:39:01.587Z,22.91
2022-08-22T18:41:15.922Z,22.91
2022-08-22T18:43:20.903Z,22.92
2022-08-22T18:45:44.490Z,22.96
2022-08-22T18:47:55.513Z,22.89
2022-08-22T18:49:57.839Z,22.77
2022-08-22T18:52:05.411Z,22.75
2022-08-22T18:54:07.193Z,22.52
2022-08-22T18:56:18.661Z,22.77
2022-08-22T18:58:49.398Z,22.72
2022-08-22T19:01:22.331Z,22.67
2022-08-22T19:03:51.894Z,22.61
2022-08-22T19:06:29.276Z,22.51
2022-08-22T19:08:53.052Z,22.44
2022-08-22T19:11:01.258Z,22.50
2022-08-22T19:13:21.296Z,22.35
2022-08-22T19:15:32.120Z,22.36
2022-08-22T19:18:03.229Z,22.25
2022-08-22T19:20:35.285Z,22.27
2022-08-22T19:22:37.530Z,22.25
2022-08-22T19:24:58.165Z,22.28
2022-08-22T19:27:18.746Z,22.22
2022-08-22T19:29:20.535Z,21.91
2022-08-22T19:31:24.568Z,22.01
2022-08-22T19:33:37.557Z,21.93
2022-08-22T19:37:56.572Z,21.90
2022-08-22T19:40:01.889Z,22.01
2022-08-22T19:42:03.945Z,21.85
2022-08-22T19:44:11.497Z,21.96
2022-08-22T19:46:13.562Z,21.92
2022-08-22T19:48:15.827Z,21.97
2022-08-22T19:50:18.017Z,21.87
2022-08-22T19:52:53.715Z,21.80
2022-08-22T19:55:14.126Z,21.70
2022-08-22T19:57:34.284Z,21.74
2022-08-22T19:59:50.402Z,21.66
2022-08-22T20:02:15.645Z,21.72
2022-08-22T20:04:35.308Z,21.76
2022-08-22T20:06:52.261Z,21.65
2022-08-22T20:09:39.040Z,21.54
2022-08-22T20:11:46.056Z,21.59
2022-08-22T20:13:48.100Z,21.63
2022-08-22T20:16:07.223Z,21.53
2022-08-22T20:18:46.685Z,21.60
2022-08-22T20:20:36.985Z,21.48
2022-08-22T20:22:38.669Z,21.51
2022-08-22T20:24:45.811Z,21.52
2022-08-22T20:27:12.077Z,21.51
2022-08-22T20:29:12.652Z,21.44
2022-08-22T20:31:27.145Z,21.36
2022-08-22T20:33:34.550Z,21.43
2022-08-22T20:35:40.871Z,21.41
2022-08-22T20:38:05.813Z,21.50
2022-08-22T20:40:55.463Z,21.56
2022-08-22T20:43:00.637Z,21.30
2022-08-22T20:45:12.277Z,21.40
2022-08-22T20:47:21.275Z,21.41
2022-08-22T20:49:35.756Z,21.38
2022-08-22T20:51:37.592Z,21.57
2022-08-22T20:53:39.460Z,21.54
2022-08-22T20:55:53.173Z,21.62
2022-08-22T20:57:58.204Z,21.18
2022-08-22T21:00:23.916Z,21.35
2022-08-22T21:03:00.394Z,21.34
2022-08-22T21:05:16.485Z,21.39
2022-08-22T21:07:28.229Z,21.32
2022-08-22T21:09:30.150Z,21.24
2022-08-22T21:11:31.919Z,21.27
2022-08-22T21:13:37.314Z,21.19
2022-08-22T21:15:54.949Z,21.39
2022-08-22T21:17:57.565Z,21.31
2022-08-22T21:20:17.414Z,21.14
2022-08-22T21:22:27.319Z,21.25
2022-08-22T21:24:30.434Z,21.15
2022-08-22T21:26:39.818Z,21.32
2022-08-22T21:29:04.650Z,21.12
2022-08-22T21:31:13.504Z,21.21
2022-08-22T21:33:23.991Z,21.13
2022-08-22T21:35:32.388Z,20.87
2022-08-22T21:37:39.283Z,20.74
2022-08-22T21:39:46.098Z,20.79
2022-08-22T21:42:07.906Z,20.85
2022-08-22T21:44:27.923Z,20.74
2022-08-22T21:46:29.875Z,20.68
2022-08-22T21:48:42.527Z,20.73
2022-08-22T21:50:44.278Z,20.64
2022-08-22T21:52:55.167Z,20.68
2022-08-22T21:55:26.509Z,20.73
2022-08-22T21:57:35.783Z,20.75
2022-08-22T21:59:52.048Z,20.76
2022-08-22T22:02:34.169Z,20.74
2022-08-22T22:04:38.301Z,20.85
2022-08-22T22:06:40.192Z,20.89
2022-08-22T22:08:41.984Z,20.82
2022-08-22T22:10:45.959Z,20.98
2022-08-22T22:12:49.329Z,21.05
2022-08-22T22:14:51.477Z,21.00
2022-08-22T22:16:53.258Z,20.96
2022-08-22T22:18:55.804Z,21.09
2022-08-22T22:20:57.989Z,20.95
2022-08-22T22:22:59.913Z,20.99
2022-08-22T22:25:01.888Z,20.95
2022-08-22T22:27:05.459Z,21.14
2022-08-22T22:29:07.054Z,21.08
2022-08-22T22:31:10.665Z,20.85
2022-08-22T22:33:12.820Z,21.04
2022-08-22T22:35:15.480Z,21.08
2022-08-22T22:37:17.275Z,20.95
2022-08-22T22:39:19.180Z,20.92
2022-08-22T22:41:21.875Z,20.99
2022-08-22T22:43:23.819Z,20.95
2022-08-22T22:45:25.715Z,20.98
2022-08-22T22:47:30.336Z,20.85
2022-08-22T22:49:33.031Z,20.80
2022-08-22T22:51:34.942Z,20.76
2022-08-22T22:53:42.788Z,20.55
2022-08-22T22:55:45.539Z,20.65
2022-08-22T22:58:02.107Z,20.58
2022-08-22T23:00:06.648Z,20.66
2022-08-22T23:02:12.547Z,20.58
2022-08-22T23:04:14.296Z,20.56
2022-08-22T23:06:19.195Z,20.55
2022-08-22T23:08:20.929Z,20.61
2022-08-22T23:10:22.844Z,20.62
2022-08-22T23:12:26.006Z,20.52
2022-08-22T23:14:27.945Z,20.58
2022-08-22T23:16:34.000Z,20.73
2022-08-22T23:18:38.907Z,20.79
2022-08-22T23:20:40.659Z,20.70
2022-08-22T23:22:44.711Z,20.75
2022-08-22T23:24:46.478Z,20.79
2022-08-22T23:26:48.223Z,20.95
2022-08-22T23:28:50.121Z,20.84
2022-08-22T23:30:51.882Z,20.86
2022-08-22T23:32:53.734Z,20.92
2022-08-22T23:34:55.780Z,20.89
2022-08-22T23:37:00.370Z,21.00
2022-08-22T23:39:03.007Z,21.01
2022-08-22T23:41:09.797Z,20.88
2022-08-22T23:43:11.820Z,20.90
2022-08-22T23:45:13.589Z,20.55
2022-08-22T23:47:15.899Z,20.30
2022-08-22T23:49:17.882Z,20.57
2022-08-22T23:51:22.955Z,20.61
2022-08-22T23:53:25.091Z,20.43
2022-08-22T23:55:26.833Z,20.23
2022-08-22T23:57:29.419Z,20.13
2022-08-22T23:59:34.220Z,20.03
